sensor_id;sensor_type;location;lat;lon;timestamp;temperature;humidity
17296;DHT22;8766;51.480;6.872;2022-07-06T00:00:26;19.00;45.20
17296;DHT22;8766;51.480;6.872;2022-07-06T00:02:53;19.00;45.20
17296;DHT22;8766;51.480;6.872;2022-07-06T00:05:20;19.00;45.30
17296;DHT22;8766;51.480;6.872;2022-07-06T00:07:48;19.00;45.30
17296;DHT22;8766;51.480;6.872;2022-07-06T00:10:15;19.00;45.30
17296;DHT22;8766;51.480;6.872;2022-07-06T00:12:42;19.00;45.20
17296;DHT22;8766;51.480;6.872;2022-07-06T00:15:09;19.00;45.20
17296;DHT22;8766;51.480;6.872;2022-07-06T00:17:36;19.10;45.10
17296;DHT22;8766;51.480;6.872;2022-07-06T00:20:04;19.10;45.00
17296;DHT22;8766;51.480;6.872;2022-07-06T00:22:31;19.10;44.90
17296;DHT22;8766;51.480;6.872;2022-07-06T00:25:00;19.20;44.90
17296;DHT22;8766;51.480;6.872;2022-07-06T00:27:27;19.20;44.80
17296;DHT22;8766;51.480;6.872;2022-07-06T00:29:54;19.20;44.80
17296;DHT22;8766;51.480;6.872;2022-07-06T00:32:20;19.20;44.80
17296;DHT22;8766;51.480;6.872;2022-07-06T00:34:47;19.10;44.80
17296;DHT22;8766;51.480;6.872;2022-07-06T00:37:14;19.10;44.90
17296;DHT22;8766;51.480;6.872;2022-07-06T00:39:41;19.10;45.00
17296;DHT22;8766;51.480;6.872;2022-07-06T00:42:10;19.00;45.00
17296;DHT22;8766;51.480;6.872;2022-07-06T00:44:37;19.00;45.10
17296;DHT22;8766;51.480;6.872;2022-07-06T00:47:04;18.90;45.20
17296;DHT22;8766;51.480;6.872;2022-07-06T00:49:33;18.80;45.30
17296;DHT22;8766;51.480;6.872;2022-07-06T00:52:17;18.70;45.40
17296;DHT22;8766;51.480;6.872;2022-07-06T00:54:45;18.70;45.60
17296;DHT22;8766;51.480;6.872;2022-07-06T00:57:14;18.60;45.70
17296;DHT22;8766;51.480;6.872;2022-07-06T00:59:42;18.50;45.80
17296;DHT22;8766;51.480;6.872;2022-07-06T01:02:09;18.40;45.90
17296;DHT22;8766;51.480;6.872;2022-07-06T01:04:36;18.40;46.00
17296;DHT22;8766;51.480;6.872;2022-07-06T01:07:03;18.40;46.10
17296;DHT22;8766;51.480;6.872;2022-07-06T01:09:31;18.30;46.10
17296;DHT22;8766;51.480;6.872;2022-07-06T01:11:58;18.30;46.20
17296;DHT22;8766;51.480;6.872;2022-07-06T01:14:26;18.30;46.20
17296;DHT22;8766;51.480;6.872;2022-07-06T01:16:54;18.20;46.30
17296;DHT22;8766;51.480;6.872;2022-07-06T01:19:21;18.20;46.30
17296;DHT22;8766;51.480;6.872;2022-07-06T01:21:50;18.10;46.20
17296;DHT22;8766;51.480;6.872;2022-07-06T01:24:17;18.10;46.20
17296;DHT22;8766;51.480;6.872;2022-07-06T01:26:44;18.10;46.30
17296;DHT22;8766;51.480;6.872;2022-07-06T01:29:11;18.10;46.30
17296;DHT22;8766;51.480;6.872;2022-07-06T01:31:45;18.10;46.40
17296;DHT22;8766;51.480;6.872;2022-07-06T01:34:13;18.00;47.00
17296;DHT22;8766;51.480;6.872;2022-07-06T01:36:40;18.00;46.40
17296;DHT22;8766;51.480;6.872;2022-07-06T01:39:09;18.00;46.50
17296;DHT22;8766;51.480;6.872;2022-07-06T01:41:36;18.00;46.60
17296;DHT22;8766;51.480;6.872;2022-07-06T01:44:04;17.90;46.50
17296;DHT22;8766;51.480;6.872;2022-07-06T01:46:31;17.90;46.60
17296;DHT22;8766;51.480;6.872;2022-07-06T01:48:58;17.80;46.60
17296;DHT22;8766;51.480;6.872;2022-07-06T01:51:25;17.80;46.70
17296;DHT22;8766;51.480;6.872;2022-07-06T01:53:53;17.80;46.70
17296;DHT22;8766;51.480;6.872;2022-07-06T01:56:21;17.70;46.70
17296;DHT22;8766;51.480;6.872;2022-07-06T01:58:48;17.70;46.80
17296;DHT22;8766;51.480;6.872;2022-07-06T02:01:18;17.70;46.80
17296;DHT22;8766;51.480;6.872;2022-07-06T02:03:46;17.70;46.90
17296;DHT22;8766;51.480;6.872;2022-07-06T02:06:14;17.70;46.90
17296;DHT22;8766;51.480;6.872;2022-07-06T02:08:41;17.60;46.90
17296;DHT22;8766;51.480;6.872;2022-07-06T02:11:09;17.60;46.90
17296;DHT22;8766;51.480;6.872;2022-07-06T02:13:38;17.60;46.90
17296;DHT22;8766;51.480;6.872;2022-07-06T02:16:05;17.60;47.00
17296;DHT22;8766;51.480;6.872;2022-07-06T02:18:32;17.50;47.00
17296;DHT22;8766;51.480;6.872;2022-07-06T02:20:59;17.50;47.00
17296;DHT22;8766;51.480;6.872;2022-07-06T02:23:26;17.50;47.00
17296;DHT22;8766;51.480;6.872;2022-07-06T02:25:53;17.50;47.10
17296;DHT22;8766;51.480;6.872;2022-07-06T02:28:20;17.40;47.10
17296;DHT22;8766;51.480;6.872;2022-07-06T02:30:49;17.40;47.10
17296;DHT22;8766;51.480;6.872;2022-07-06T02:33:16;17.40;47.20
17296;DHT22;8766;51.480;6.872;2022-07-06T02:35:43;17.40;47.30
17296;DHT22;8766;51.480;6.872;2022-07-06T02:38:10;17.30;47.20
17296;DHT22;8766;51.480;6.872;2022-07-06T02:40:37;17.30;47.20
17296;DHT22;8766;51.480;6.872;2022-07-06T02:43:04;17.30;47.20
17296;DHT22;8766;51.480;6.872;2022-07-06T02:45:31;17.30;47.30
17296;DHT22;8766;51.480;6.872;2022-07-06T02:47:59;17.30;47.30
17296;DHT22;8766;51.480;6.872;2022-07-06T02:50:26;17.30;47.30
17296;DHT22;8766;51.480;6.872;2022-07-06T02:52:53;17.30;47.40
17296;DHT22;8766;51.480;6.872;2022-07-06T02:55:21;17.20;47.30
17296;DHT22;8766;51.480;6.872;2022-07-06T02:57:48;17.20;47.40
17296;DHT22;8766;51.480;6.872;2022-07-06T03:00:16;17.20;47.40
17296;DHT22;8766;51.480;6.872;2022-07-06T03:02:43;17.20;47.40
17296;DHT22;8766;51.480;6.872;2022-07-06T03:05:11;17.10;47.50
17296;DHT22;8766;51.480;6.872;2022-07-06T03:07:38;17.10;47.50
17296;DHT22;8766;51.480;6.872;2022-07-06T03:10:05;17.10;48.00
17296;DHT22;8766;51.480;6.872;2022-07-06T03:12:33;17.10;47.50
17296;DHT22;8766;51.480;6.872;2022-07-06T03:15:00;17.10;47.50
17296;DHT22;8766;51.480;6.872;2022-07-06T03:17:27;17.10;47.50
17296;DHT22;8766;51.480;6.872;2022-07-06T03:19:54;17.10;47.50
17296;DHT22;8766;51.480;6.872;2022-07-06T03:22:22;17.20;47.50
17296;DHT22;8766;51.480;6.872;2022-07-06T03:24:49;17.10;47.50
17296;DHT22;8766;51.480;6.872;2022-07-06T03:27:16;17.10;47.40
17296;DHT22;8766;51.480;6.872;2022-07-06T03:29:43;17.20;47.30
17296;DHT22;8766;51.480;6.872;2022-07-06T03:32:10;17.20;47.20
17296;DHT22;8766;51.480;6.872;2022-07-06T03:34:37;17.30;47.30
17296;DHT22;8766;51.480;6.872;2022-07-06T03:37:04;17.30;47.20
17296;DHT22;8766;51.480;6.872;2022-07-06T03:39:33;17.30;47.20
17296;DHT22;8766;51.480;6.872;2022-07-06T03:42:00;17.30;47.20
17296;DHT22;8766;51.480;6.872;2022-07-06T03:44:27;17.30;47.30
17296;DHT22;8766;51.480;6.872;2022-07-06T03:46:54;17.30;47.10
17296;DHT22;8766;51.480;6.872;2022-07-06T03:49:21;17.40;47.10
17296;DHT22;8766;51.480;6.872;2022-07-06T03:51:50;17.40;47.00
17296;DHT22;8766;51.480;6.872;2022-07-06T03:54:17;17.40;46.90
17296;DHT22;8766;51.480;6.872;2022-07-06T03:56:45;17.50;47.00
17296;DHT22;8766;51.480;6.872;2022-07-06T03:59:12;17.50;46.90
17296;DHT22;8766;51.480;6.872;2022-07-06T04:01:39;17.50;46.90
17296;DHT22;8766;51.480;6.872;2022-07-06T04:04:06;17.50;46.80
17296;DHT22;8766;51.480;6.872;2022-07-06T04:06:33;17.60;46.80
17296;DHT22;8766;51.480;6.872;2022-07-06T04:09:01;17.60;46.80
17296;DHT22;8766;51.480;6.872;2022-07-06T04:11:28;17.60;46.70
17296;DHT22;8766;51.480;6.872;2022-07-06T04:13:56;17.70;46.60
17296;DHT22;8766;51.480;6.872;2022-07-06T04:16:23;17.70;46.60
17296;DHT22;8766;51.480;6.872;2022-07-06T04:18:50;17.70;46.50
17296;DHT22;8766;51.480;6.872;2022-07-06T04:21:17;17.80;46.50
17296;DHT22;8766;51.480;6.872;2022-07-06T04:23:44;17.80;46.40
17296;DHT22;8766;51.480;6.872;2022-07-06T04:26:11;17.80;46.40
17296;DHT22;8766;51.480;6.872;2022-07-06T04:28:38;17.80;46.40
17296;DHT22;8766;51.480;6.872;2022-07-06T04:31:06;17.80;46.40
17296;DHT22;8766;51.480;6.872;2022-07-06T04:33:34;17.80;46.40
17296;DHT22;8766;51.480;6.872;2022-07-06T04:36:01;17.90;46.40
17296;DHT22;8766;51.480;6.872;2022-07-06T04:38:28;18.00;46.30
17296;DHT22;8766;51.480;6.872;2022-07-06T04:40:55;18.00;46.20
17296;DHT22;8766;51.480;6.872;2022-07-06T04:43:21;18.10;46.10
17296;DHT22;8766;51.480;6.872;2022-07-06T04:45:49;18.20;46.00
17296;DHT22;8766;51.480;6.872;2022-07-06T04:48:17;18.30;45.80
17296;DHT22;8766;51.480;6.872;2022-07-06T04:50:44;18.40;45.70
17296;DHT22;8766;51.480;6.872;2022-07-06T04:53:11;18.50;45.40
17296;DHT22;8766;51.480;6.872;2022-07-06T04:55:38;18.70;45.70
17296;DHT22;8766;51.480;6.872;2022-07-06T04:58:05;19.10;45.50
17296;DHT22;8766;51.480;6.872;2022-07-06T05:00:32;19.90;44.00
17296;DHT22;8766;51.480;6.872;2022-07-06T05:02:59;21.50;41.40
17296;DHT22;8766;51.480;6.872;2022-07-06T05:05:27;23.50;38.40
17296;DHT22;8766;51.480;6.872;2022-07-06T05:07:54;25.20;35.90
17296;DHT22;8766;51.480;6.872;2022-07-06T05:10:21;26.60;34.30
17296;DHT22;8766;51.480;6.872;2022-07-06T05:12:48;27.60;33.20
17296;DHT22;8766;51.480;6.872;2022-07-06T05:15:15;28.40;32.40
17296;DHT22;8766;51.480;6.872;2022-07-06T05:17:42;28.90;32.10
17296;DHT22;8766;51.480;6.872;2022-07-06T05:20:09;29.20;32.10
17296;DHT22;8766;51.480;6.872;2022-07-06T05:22:38;29.50;32.00
17296;DHT22;8766;51.480;6.872;2022-07-06T05:25:05;30.00;31.60
17296;DHT22;8766;51.480;6.872;2022-07-06T05:27:32;30.50;31.20
17296;DHT22;8766;51.480;6.872;2022-07-06T05:29:59;30.80;31.00
17296;DHT22;8766;51.480;6.872;2022-07-06T05:32:26;31.20;30.80
17296;DHT22;8766;51.480;6.872;2022-07-06T05:34:53;31.70;30.50
17296;DHT22;8766;51.480;6.872;2022-07-06T05:37:20;32.20;30.10
17296;DHT22;8766;51.480;6.872;2022-07-06T05:39:49;32.70;29.80
17296;DHT22;8766;51.480;6.872;2022-07-06T05:42:16;33.30;29.70
17296;DHT22;8766;51.480;6.872;2022-07-06T05:44:43;33.70;29.40
17296;DHT22;8766;51.480;6.872;2022-07-06T05:47:10;34.00;29.70
17296;DHT22;8766;51.480;6.872;2022-07-06T05:49:54;34.40;29.10
17296;DHT22;8766;51.480;6.872;2022-07-06T05:52:40;34.70;29.00
17296;DHT22;8766;51.480;6.872;2022-07-06T05:55:09;35.00;29.00
17296;DHT22;8766;51.480;6.872;2022-07-06T05:57:36;35.00;29.10
17296;DHT22;8766;51.480;6.872;2022-07-06T06:00:05;34.40;29.60
17296;DHT22;8766;51.480;6.872;2022-07-06T06:02:42;33.40;30.40
17296;DHT22;8766;51.480;6.872;2022-07-06T06:05:10;32.30;31.60
17296;DHT22;8766;51.480;6.872;2022-07-06T06:07:38;31.30;32.90
17296;DHT22;8766;51.480;6.872;2022-07-06T06:10:07;30.10;34.20
17296;DHT22;8766;51.480;6.872;2022-07-06T06:12:36;29.00;35.50
17296;DHT22;8766;51.480;6.872;2022-07-06T06:15:04;28.00;36.70
17296;DHT22;8766;51.480;6.872;2022-07-06T06:17:31;27.20;37.70
17296;DHT22;8766;51.480;6.872;2022-07-06T06:19:59;26.50;38.50
17296;DHT22;8766;51.480;6.872;2022-07-06T06:22:26;26.00;39.20
17296;DHT22;8766;51.480;6.872;2022-07-06T06:24:53;25.60;39.60
17296;DHT22;8766;51.480;6.872;2022-07-06T06:27:20;25.30;39.90
17296;DHT22;8766;51.480;6.872;2022-07-06T06:29:48;24.90;40.20
17296;DHT22;8766;51.480;6.872;2022-07-06T06:32:15;24.60;40.60
17296;DHT22;8766;51.480;6.872;2022-07-06T06:34:42;24.40;40.80
17296;DHT22;8766;51.480;6.872;2022-07-06T06:37:09;24.20;40.90
17296;DHT22;8766;51.480;6.872;2022-07-06T06:39:36;24.10;41.00
17296;DHT22;8766;51.480;6.872;2022-07-06T06:42:03;24.00;41.00
17296;DHT22;8766;51.480;6.872;2022-07-06T06:44:30;24.00;40.90
17296;DHT22;8766;51.480;6.872;2022-07-06T06:46:59;24.10;40.50
17296;DHT22;8766;51.480;6.872;2022-07-06T06:49:26;24.20;40.30
17296;DHT22;8766;51.480;6.872;2022-07-06T06:51:53;24.30;40.10
17296;DHT22;8766;51.480;6.872;2022-07-06T06:54:20;24.30;40.00
17296;DHT22;8766;51.480;6.872;2022-07-06T06:56:47;24.30;40.00
17296;DHT22;8766;51.480;6.872;2022-07-06T06:59:14;24.30;39.90
17296;DHT22;8766;51.480;6.872;2022-07-06T07:01:41;24.30;39.60
17296;DHT22;8766;51.480;6.872;2022-07-06T07:04:09;24.50;39.40
17296;DHT22;8766;51.480;6.872;2022-07-06T07:06:37;24.50;39.20
17296;DHT22;8766;51.480;6.872;2022-07-06T07:09:04;24.50;39.10
17296;DHT22;8766;51.480;6.872;2022-07-06T07:11:31;24.50;39.30
17296;DHT22;8766;51.480;6.872;2022-07-06T07:13:58;24.40;39.30
17296;DHT22;8766;51.480;6.872;2022-07-06T07:16:26;24.50;39.30
17296;DHT22;8766;51.480;6.872;2022-07-06T07:18:53;24.50;39.20
17296;DHT22;8766;51.480;6.872;2022-07-06T07:21:21;24.50;39.10
17296;DHT22;8766;51.480;6.872;2022-07-06T07:23:48;24.70;38.80
17296;DHT22;8766;51.480;6.872;2022-07-06T07:26:16;24.90;38.50
17296;DHT22;8766;51.480;6.872;2022-07-06T07:28:43;25.20;38.10
17296;DHT22;8766;51.480;6.872;2022-07-06T07:31:10;25.40;37.70
17296;DHT22;8766;51.480;6.872;2022-07-06T07:33:37;25.70;37.40
17296;DHT22;8766;51.480;6.872;2022-07-06T07:36:04;26.10;36.80
17296;DHT22;8766;51.480;6.872;2022-07-06T07:38:33;26.60;36.20
17296;DHT22;8766;51.480;6.872;2022-07-06T07:41:00;27.10;35.80
17296;DHT22;8766;51.480;6.872;2022-07-06T07:43:27;27.60;35.20
17296;DHT22;8766;51.480;6.872;2022-07-06T07:45:54;28.10;34.60
17296;DHT22;8766;51.480;6.872;2022-07-06T07:48:21;28.10;34.60
17296;DHT22;8766;51.480;6.872;2022-07-06T07:50:48;28.00;34.70
17296;DHT22;8766;51.480;6.872;2022-07-06T07:53:15;28.20;34.50
17296;DHT22;8766;51.480;6.872;2022-07-06T07:55:43;28.70;34.30
17296;DHT22;8766;51.480;6.872;2022-07-06T07:58:10;28.90;34.00
17296;DHT22;8766;51.480;6.872;2022-07-06T08:00:37;29.00;34.00
17296;DHT22;8766;51.480;6.872;2022-07-06T08:03:04;30.10;33.00
17296;DHT22;8766;51.480;6.872;2022-07-06T08:05:31;31.50;31.60
17296;DHT22;8766;51.480;6.872;2022-07-06T08:07:58;32.60;30.40
17296;DHT22;8766;51.480;6.872;2022-07-06T08:10:25;33.60;29.80
17296;DHT22;8766;51.480;6.872;2022-07-06T08:12:54;34.30;29.40
17296;DHT22;8766;51.480;6.872;2022-07-06T08:15:21;34.90;29.00
17296;DHT22;8766;51.480;6.872;2022-07-06T08:17:48;35.50;28.70
17296;DHT22;8766;51.480;6.872;2022-07-06T08:20:15;35.50;28.70
17296;DHT22;8766;51.480;6.872;2022-07-06T08:22:42;35.00;29.10
17296;DHT22;8766;51.480;6.872;2022-07-06T08:25:09;33.70;30.10
17296;DHT22;8766;51.480;6.872;2022-07-06T08:27:37;32.40;31.70
17296;DHT22;8766;51.480;6.872;2022-07-06T08:30:06;31.00;33.20
17296;DHT22;8766;51.480;6.872;2022-07-06T08:32:37;29.80;34.60
17296;DHT22;8766;51.480;6.872;2022-07-06T08:35:04;28.80;35.80
17296;DHT22;8766;51.480;6.872;2022-07-06T08:37:31;28.10;36.70
17296;DHT22;8766;51.480;6.872;2022-07-06T08:39:58;27.50;37.40
17296;DHT22;8766;51.480;6.872;2022-07-06T08:42:29;27.00;38.10
17296;DHT22;8766;51.480;6.872;2022-07-06T08:44:58;26.50;38.50
17296;DHT22;8766;51.480;6.872;2022-07-06T08:47:27;26.10;38.90
17296;DHT22;8766;51.480;6.872;2022-07-06T08:49:54;25.70;39.20
17296;DHT22;8766;51.480;6.872;2022-07-06T08:52:23;25.40;39.50
17296;DHT22;8766;51.480;6.872;2022-07-06T08:54:50;25.20;39.70
17296;DHT22;8766;51.480;6.872;2022-07-06T08:57:17;25.00;39.90
17296;DHT22;8766;51.480;6.872;2022-07-06T08:59:45;24.80;40.00
17296;DHT22;8766;51.480;6.872;2022-07-06T09:02:13;24.70;40.00
17296;DHT22;8766;51.480;6.872;2022-07-06T09:04:43;24.60;40.00
17296;DHT22;8766;51.480;6.872;2022-07-06T09:07:10;24.60;40.10
17296;DHT22;8766;51.480;6.872;2022-07-06T09:09:40;24.50;40.00
17296;DHT22;8766;51.480;6.872;2022-07-06T09:12:11;24.40;40.10
17296;DHT22;8766;51.480;6.872;2022-07-06T09:14:39;24.30;40.10
17296;DHT22;8766;51.480;6.872;2022-07-06T09:17:06;24.30;40.00
17296;DHT22;8766;51.480;6.872;2022-07-06T09:19:35;24.60;39.60
17296;DHT22;8766;51.480;6.872;2022-07-06T09:22:04;25.00;38.70
17296;DHT22;8766;51.480;6.872;2022-07-06T09:24:31;25.60;38.00
17296;DHT22;8766;51.480;6.872;2022-07-06T09:26:59;26.00;37.30
17296;DHT22;8766;51.480;6.872;2022-07-06T09:29:30;26.20;37.00
17296;DHT22;8766;51.480;6.872;2022-07-06T09:31:58;26.30;36.80
17296;DHT22;8766;51.480;6.872;2022-07-06T09:34:25;26.30;36.70
17296;DHT22;8766;51.480;6.872;2022-07-06T09:36:52;26.20;36.80
17296;DHT22;8766;51.480;6.872;2022-07-06T09:39:23;26.10;36.90
17296;DHT22;8766;51.480;6.872;2022-07-06T09:41:52;26.10;37.10
17296;DHT22;8766;51.480;6.872;2022-07-06T09:44:23;25.90;37.20
17296;DHT22;8766;51.480;6.872;2022-07-06T09:46:51;25.90;37.30
17296;DHT22;8766;51.480;6.872;2022-07-06T09:49:19;26.00;37.20
17296;DHT22;8766;51.480;6.872;2022-07-06T09:51:47;26.00;37.10
17296;DHT22;8766;51.480;6.872;2022-07-06T09:54:14;26.00;37.10
17296;DHT22;8766;51.480;6.872;2022-07-06T09:56:44;26.10;37.00
17296;DHT22;8766;51.480;6.872;2022-07-06T09:59:15;26.20;36.90
17296;DHT22;8766;51.480;6.872;2022-07-06T10:01:43;26.30;36.70
17296;DHT22;8766;51.480;6.872;2022-07-06T10:04:11;26.30;36.60
17296;DHT22;8766;51.480;6.872;2022-07-06T10:06:39;26.20;36.70
17296;DHT22;8766;51.480;6.872;2022-07-06T10:09:08;26.10;36.90
17296;DHT22;8766;51.480;6.872;2022-07-06T10:11:38;25.90;37.10
17296;DHT22;8766;51.480;6.872;2022-07-06T10:14:07;25.80;37.30
17296;DHT22;8766;51.480;6.872;2022-07-06T10:16:35;25.80;37.30
17296;DHT22;8766;51.480;6.872;2022-07-06T10:19:05;25.80;37.30
17296;DHT22;8766;51.480;6.872;2022-07-06T10:21:33;25.90;37.30
17296;DHT22;8766;51.480;6.872;2022-07-06T10:24:03;26.00;37.10
17296;DHT22;8766;51.480;6.872;2022-07-06T10:26:30;26.00;37.00
17296;DHT22;8766;51.480;6.872;2022-07-06T10:28:59;26.00;37.00
17296;DHT22;8766;51.480;6.872;2022-07-06T10:31:28;26.00;37.10
17296;DHT22;8766;51.480;6.872;2022-07-06T10:33:57;26.00;37.10
17296;DHT22;8766;51.480;6.872;2022-07-06T10:36:26;26.10;37.00
17296;DHT22;8766;51.480;6.872;2022-07-06T10:38:53;26.10;36.90
17296;DHT22;8766;51.480;6.872;2022-07-06T10:41:33;26.00;37.10
17296;DHT22;8766;51.480;6.872;2022-07-06T10:44:15;25.80;37.30
17296;DHT22;8766;51.480;6.872;2022-07-06T10:46:50;25.60;37.50
17296;DHT22;8766;51.480;6.872;2022-07-06T10:49:17;25.40;37.80
17296;DHT22;8766;51.480;6.872;2022-07-06T10:51:44;25.20;37.90
17296;DHT22;8766;51.480;6.872;2022-07-06T10:54:13;25.10;38.10
17296;DHT22;8766;51.480;6.872;2022-07-06T10:56:43;24.90;38.30
17296;DHT22;8766;51.480;6.872;2022-07-06T10:59:12;24.90;38.50
17296;DHT22;8766;51.480;6.872;2022-07-06T11:02:10;24.90;38.30
17296;DHT22;8766;51.480;6.872;2022-07-06T11:04:31;25.10;38.10
17296;DHT22;8766;51.480;6.872;2022-07-06T11:07:07;25.30;37.70
17296;DHT22;8766;51.480;6.872;2022-07-06T11:09:35;25.50;37.50
17296;DHT22;8766;51.480;6.872;2022-07-06T11:12:12;25.60;37.30
17296;DHT22;8766;51.480;6.872;2022-07-06T11:14:41;25.60;37.30
17296;DHT22;8766;51.480;6.872;2022-07-06T11:17:11;25.60;37.30
17296;DHT22;8766;51.480;6.872;2022-07-06T11:19:48;25.60;37.30
17296;DHT22;8766;51.480;6.872;2022-07-06T11:22:16;25.70;37.10
17296;DHT22;8766;51.480;6.872;2022-07-06T11:24:44;25.90;36.90
17296;DHT22;8766;51.480;6.872;2022-07-06T11:27:12;26.10;36.70
17296;DHT22;8766;51.480;6.872;2022-07-06T11:29:39;26.20;36.40
17296;DHT22;8766;51.480;6.872;2022-07-06T11:32:07;26.20;36.40
17296;DHT22;8766;51.480;6.872;2022-07-06T11:34:39;26.10;36.60
17296;DHT22;8766;51.480;6.872;2022-07-06T11:37:08;26.10;36.70
17296;DHT22;8766;51.480;6.872;2022-07-06T11:39:40;26.00;36.80
17296;DHT22;8766;51.480;6.872;2022-07-06T11:42:32;25.80;36.90
17296;DHT22;8766;51.480;6.872;2022-07-06T11:45:05;25.80;37.10
17296;DHT22;8766;51.480;6.872;2022-07-06T11:47:37;25.80;37.00
17296;DHT22;8766;51.480;6.872;2022-07-06T11:50:32;25.90;36.90
17296;DHT22;8766;51.480;6.872;2022-07-06T11:53:23;26.10;36.80
17296;DHT22;8766;51.480;6.872;2022-07-06T11:56:16;26.10;36.60
17296;DHT22;8766;51.480;6.872;2022-07-06T11:58:55;26.20;36.60
17296;DHT22;8766;51.480;6.872;2022-07-06T12:04:15;26.20;36.60
17296;DHT22;8766;51.480;6.872;2022-07-06T12:07:14;26.10;36.60
17296;DHT22;8766;51.480;6.872;2022-07-06T12:10:00;26.00;36.80
17296;DHT22;8766;51.480;6.872;2022-07-06T12:12:52;25.80;37.00
17296;DHT22;8766;51.480;6.872;2022-07-06T12:16:10;25.70;37.20
17296;DHT22;8766;51.480;6.872;2022-07-06T12:18:55;25.60;37.30
17296;DHT22;8766;51.480;6.872;2022-07-06T12:21:42;25.70;37.30
17296;DHT22;8766;51.480;6.872;2022-07-06T12:24:47;25.80;37.00
17296;DHT22;8766;51.480;6.872;2022-07-06T12:27:39;26.10;36.80
17296;DHT22;8766;51.480;6.872;2022-07-06T12:30:18;26.30;36.50
17296;DHT22;8766;51.480;6.872;2022-07-06T12:33:10;26.50;36.30
17296;DHT22;8766;51.480;6.872;2022-07-06T12:35:53;26.60;36.10
17296;DHT22;8766;51.480;6.872;2022-07-06T12:41:36;26.30;36.40
17296;DHT22;8766;51.480;6.872;2022-07-06T12:44:22;26.20;36.60
17296;DHT22;8766;51.480;6.872;2022-07-06T12:47:02;26.20;36.60
17296;DHT22;8766;51.480;6.872;2022-07-06T12:49:48;26.20;36.60
17296;DHT22;8766;51.480;6.872;2022-07-06T12:52:35;26.20;36.60
17296;DHT22;8766;51.480;6.872;2022-07-06T12:55:12;26.10;36.70
17296;DHT22;8766;51.480;6.872;2022-07-06T12:58:05;26.10;36.70
17296;DHT22;8766;51.480;6.872;2022-07-06T13:00:46;26.20;36.70
17296;DHT22;8766;51.480;6.872;2022-07-06T13:03:14;26.20;36.70
17296;DHT22;8766;51.480;6.872;2022-07-06T13:05:49;26.20;36.70
17296;DHT22;8766;51.480;6.872;2022-07-06T13:08:16;26.10;36.70
17296;DHT22;8766;51.480;6.872;2022-07-06T13:10:43;26.20;36.70
17296;DHT22;8766;51.480;6.872;2022-07-06T13:13:12;26.40;36.50
17296;DHT22;8766;51.480;6.872;2022-07-06T13:15:41;26.60;36.20
17296;DHT22;8766;51.480;6.872;2022-07-06T13:18:08;26.60;36.20
17296;DHT22;8766;51.480;6.872;2022-07-06T13:20:35;26.60;36.30
17296;DHT22;8766;51.480;6.872;2022-07-06T13:23:02;26.50;36.30
17296;DHT22;8766;51.480;6.872;2022-07-06T13:25:29;26.40;36.50
17296;DHT22;8766;51.480;6.872;2022-07-06T13:27:56;26.30;36.60
17296;DHT22;8766;51.480;6.872;2022-07-06T13:30:25;26.20;36.70
17296;DHT22;8766;51.480;6.872;2022-07-06T13:32:52;26.10;36.80
17296;DHT22;8766;51.480;6.872;2022-07-06T13:35:19;26.10;36.90
17296;DHT22;8766;51.480;6.872;2022-07-06T13:37:46;26.10;36.90
17296;DHT22;8766;51.480;6.872;2022-07-06T13:40:14;26.30;36.70
17296;DHT22;8766;51.480;6.872;2022-07-06T13:42:41;26.50;36.50
17296;DHT22;8766;51.480;6.872;2022-07-06T13:45:09;26.50;36.40
17296;DHT22;8766;51.480;6.872;2022-07-06T13:47:38;26.50;36.40
17296;DHT22;8766;51.480;6.872;2022-07-06T13:50:06;26.50;36.50
17296;DHT22;8766;51.480;6.872;2022-07-06T13:52:33;26.40;36.50
17296;DHT22;8766;51.480;6.872;2022-07-06T13:55:00;26.50;36.40
17296;DHT22;8766;51.480;6.872;2022-07-06T13:57:27;26.60;36.30
17296;DHT22;8766;51.480;6.872;2022-07-06T13:59:54;26.60;36.40
17296;DHT22;8766;51.480;6.872;2022-07-06T14:02:21;26.50;36.30
17296;DHT22;8766;51.480;6.872;2022-07-06T14:04:49;26.50;36.40
17296;DHT22;8766;51.480;6.872;2022-07-06T14:07:16;26.40;36.50
17296;DHT22;8766;51.480;6.872;2022-07-06T14:09:43;26.40;36.70
17296;DHT22;8766;51.480;6.872;2022-07-06T14:12:10;26.30;36.70
17296;DHT22;8766;51.480;6.872;2022-07-06T14:14:37;26.20;36.90
17296;DHT22;8766;51.480;6.872;2022-07-06T14:17:04;26.20;36.90
17296;DHT22;8766;51.480;6.872;2022-07-06T14:19:31;26.20;36.90
17296;DHT22;8766;51.480;6.872;2022-07-06T14:22:00;26.20;36.90
17296;DHT22;8766;51.480;6.872;2022-07-06T14:24:27;26.20;36.90
17296;DHT22;8766;51.480;6.872;2022-07-06T14:26:54;26.20;36.90
17296;DHT22;8766;51.480;6.872;2022-07-06T14:29:21;26.20;36.80
17296;DHT22;8766;51.480;6.872;2022-07-06T14:31:48;26.10;36.80
17296;DHT22;8766;51.480;6.872;2022-07-06T14:34:15;26.10;36.90
17296;DHT22;8766;51.480;6.872;2022-07-06T14:36:42;26.10;37.00
17296;DHT22;8766;51.480;6.872;2022-07-06T14:39:10;26.10;36.80
17296;DHT22;8766;51.480;6.872;2022-07-06T14:41:38;26.10;36.80
17296;DHT22;8766;51.480;6.872;2022-07-06T14:44:05;26.10;37.00
17296;DHT22;8766;51.480;6.872;2022-07-06T14:46:38;26.00;37.10
17296;DHT22;8766;51.480;6.872;2022-07-06T14:49:05;25.90;37.10
17296;DHT22;8766;51.480;6.872;2022-07-06T14:51:32;25.90;37.20
17296;DHT22;8766;51.480;6.872;2022-07-06T14:53:59;25.80;37.20
17296;DHT22;8766;51.480;6.872;2022-07-06T14:56:28;25.80;37.30
17296;DHT22;8766;51.480;6.872;2022-07-06T14:58:55;25.70;37.40
17296;DHT22;8766;51.480;6.872;2022-07-06T15:01:22;25.60;37.50
17296;DHT22;8766;51.480;6.872;2022-07-06T15:03:49;25.60;37.40
17296;DHT22;8766;51.480;6.872;2022-07-06T15:06:15;25.80;37.20
17296;DHT22;8766;51.480;6.872;2022-07-06T15:08:42;26.10;36.90
17296;DHT22;8766;51.480;6.872;2022-07-06T15:11:09;26.30;36.60
17296;DHT22;8766;51.480;6.872;2022-07-06T15:13:38;26.40;36.40
17296;DHT22;8766;51.480;6.872;2022-07-06T15:16:05;26.40;36.40
17296;DHT22;8766;51.480;6.872;2022-07-06T15:18:32;26.40;36.40
17296;DHT22;8766;51.480;6.872;2022-07-06T15:20:59;26.30;36.50
17296;DHT22;8766;51.480;6.872;2022-07-06T15:23:26;26.20;36.70
17296;DHT22;8766;51.480;6.872;2022-07-06T15:25:53;26.10;36.80
17296;DHT22;8766;51.480;6.872;2022-07-06T15:28:20;26.10;36.80
17296;DHT22;8766;51.480;6.872;2022-07-06T15:30:51;26.10;36.70
17296;DHT22;8766;51.480;6.872;2022-07-06T15:33:18;26.10;36.70
17296;DHT22;8766;51.480;6.872;2022-07-06T15:35:45;26.10;36.80
17296;DHT22;8766;51.480;6.872;2022-07-06T15:38:13;26.00;36.90
17296;DHT22;8766;51.480;6.872;2022-07-06T15:40:40;25.90;37.10
17296;DHT22;8766;51.480;6.872;2022-07-06T15:43:10;25.80;37.10
17296;DHT22;8766;51.480;6.872;2022-07-06T15:45:37;25.80;37.10
17296;DHT22;8766;51.480;6.872;2022-07-06T15:48:06;25.80;37.10
17296;DHT22;8766;51.480;6.872;2022-07-06T15:50:33;26.00;37.00
17296;DHT22;8766;51.480;6.872;2022-07-06T15:53:00;26.00;36.90
17296;DHT22;8766;51.480;6.872;2022-07-06T15:55:28;26.00;36.90
17296;DHT22;8766;51.480;6.872;2022-07-06T15:57:55;25.90;36.90
17296;DHT22;8766;51.480;6.872;2022-07-06T16:00:23;25.80;37.00
17296;DHT22;8766;51.480;6.872;2022-07-06T16:02:50;25.70;37.10